Time;durP1;ratioP1;P1;durP2;ratioP2;P2;SDS_P1;SDS_P2;PMS_P1;PMS_P2;Temp;Humidity;BMP_temperature;BMP_pressure;BME280_temperature;BME280_humidity;BME280_pressure;Samples;Min_cycle;Max_cycle;Signal;HPM_P1;HPM_P2
2022/11/01 00:01:44;;;;;;;;;12.25;9.75;;;;;15.47;59.13;101630.66;146607;694;46012;-69
2022/11/01 00:04:54;;;;;;;;;15.00;12.25;;;;;14.93;57.65;101541.09;146611;576;46010;-68
2022/11/01 00:07:46;;;;;;;;;14.25;11.00;;;;;15.47;58.54;101635.88;146606;580;47012;-70
2022/11/01 00:10:55;;;;;;;;;11.25;9.25;;;;;15.44;58.69;101636.63;146608;586;46020;-69
2022/11/01 00:13:57;;;;;;;;;12.00;11.00;;;;;15.41;58.52;101636.50;146606;576;46014;-69
2022/11/01 00:16:58;;;;;;;;;13.00;10.75;;;;;15.42;59.04;101648.75;146612;577;46010;-69
2022/11/01 00:20:12;;;;;;;;;;;;;;;;;;;;;
2022/11/01 00:23:10;;;;;;;;;14.00;14.00;;;;;15.41;59.65;101643.44;146610;628;46010;-70
2022/11/01 00:26:11;;;;;;;;;16.50;13.25;;;;;15.38;59.64;101645.91;146604;610;46016;-69
2022/11/01 00:29:07;;;;;;;;;14.00;13.25;;;;;14.31;59.56;101477.22;146610;627;46021;-70
2022/11/01 00:32:02;;;;;;;;;13.50;12.25;;;;;15.34;59.98;101638.75;146607;669;46016;-70
2022/11/01 00:35:13;;;;;;;;;13.50;11.75;;;;;15.25;59.72;101641.84;146608;564;46010;-70
2022/11/01 00:38:06;;;;;;;;;10.50;10.50;;;;;15.22;58.94;101644.31;146609;565;45016;-70
2022/11/01 00:41:08;;;;;;;;;13.75;12.00;;;;;15.22;58.89;101646.91;146610;611;46031;-70
2022/11/01 00:44:06;;;;;;;;;10.00;9.75;;;;;15.24;58.93;101640.94;146607;573;46014;-70
2022/11/01 00:46:58;;;;;;;;;11.75;9.50;;;;;15.27;59.16;101631.47;146608;658;46010;-67
2022/11/01 00:50:05;;;;;;;;;11.00;9.75;;;;;15.29;59.01;101637.66;146609;586;46017;-69
2022/11/01 00:53:01;;;;;;;;;12.25;9.00;;;;;15.28;58.63;101634.16;146608;588;46010;-69
2022/11/01 00:56:06;;;;;;;;;12.25;9.00;;;;;15.32;58.51;101645.62;146609;619;46013;-69
2022/11/01 00:59:03;;;;;;;;;12.00;10.25;;;;;15.34;58.53;101636.16;146608;581;46020;-69
2022/11/01 01:02:03;;;;;;;;;12.50;10.00;;;;;15.38;58.02;101638.06;146609;660;46026;-70
2022/11/01 01:05:00;;;;;;;;;14.00;11.00;;;;;15.36;57.95;101640.63;146612;594;47010;-70
2022/11/01 01:08:00;;;;;;;;;11.75;11.75;;;;;15.31;58.41;101644.75;146610;578;46012;-69
2022/11/01 01:10:57;;;;;;;;;11.25;10.25;;;;;15.28;58.33;101646.31;146612;592;46011;-68
2022/11/01 01:14:02;;;;;;;;;13.25;11.00;;;;;15.28;58.11;101652.44;146606;694;46012;-69
2022/11/01 01:16:54;;;;;;;;;14.00;11.75;;;;;15.28;58.93;101644.59;146611;569;46020;-69
2022/11/01 01:19:46;;;;;;;;;15.25;12.00;;;;;15.24;58.87;101654.00;146605;605;46029;-69
2022/11/01 01:22:39;;;;;;;;;15.50;13.25;;;;;15.17;59.51;101648.41;146609;638;46020;-69
2022/11/01 01:25:34;;;;;;;;;14.75;13.25;;;;;15.06;59.86;101647.03;146608;601;46032;-70
2022/11/01 01:28:26;;;;;;;;;13.00;12.75;;;;;14.97;60.02;101642.25;146609;641;46021;-68
2022/11/01 01:31:30;;;;;;;;;13.75;12.00;;;;;14.87;59.71;101643.53;146607;569;46014;-67
2022/11/01 01:34:33;;;;;;;;;22.00;18.25;;;;;14.79;59.94;101642.25;146608;590;46021;-68
2022/11/01 01:37:44;;;;;;;;;22.75;20.25;;;;;14.75;60.60;101641.22;146601;554;47014;-68
2022/11/01 01:40:41;;;;;;;;;16.00;15.00;;;;;14.70;60.85;101636.56;146609;611;45020;-68
2022/11/01 01:43:47;;;;;;;;;14.75;13.25;;;;;14.68;59.75;101640.84;146600;633;47919;-69
2022/11/01 01:47:03;;;;;;;;;;;;;;;;;;;;;
2022/11/01 01:50:11;;;;;;;;;13.75;12.50;;;;;14.72;60.58;101635.84;146606;726;46013;-69
2022/11/01 01:53:40;;;;;;;;;13.75;12.25;;;;;14.67;60.21;101639.97;146609;657;46031;-70
2022/11/01 01:56:51;;;;;;;;;11.75;10.50;;;;;14.58;59.93;101631.66;146606;564;46014;-69
2022/11/01 02:00:01;;;;;;;;;11.25;11.25;;;;;14.52;61.26;101634.88;146612;620;46020;-68
2022/11/01 02:02:57;;;;;;;;;12.25;10.25;;;;;14.57;60.57;101634.19;146608;608;46013;-69
2022/11/01 02:06:15;;;;;;;;;12.00;12.00;;;;;14.60;59.42;101630.00;146610;669;46020;-69
2022/11/01 02:09:17;;;;;;;;;13.00;12.75;;;;;14.65;59.91;101635.47;146609;585;46016;-68
2022/11/01 02:12:31;;;;;;;;;13.00;11.75;;;;;14.63;59.33;101635.38;146612;583;45021;-68
2022/11/01 02:15:43;;;;;;;;;13.50;12.50;;;;;14.59;59.76;101636.06;146605;736;46016;-68
2022/11/01 02:19:16;;;;;;;;;14.00;12.25;;;;;14.53;59.55;101630.53;146610;606;46020;-69
2022/11/01 02:22:45;;;;;;;;;13.75;13.00;;;;;14.61;59.87;101644.88;146609;595;46012;-68
2022/11/01 02:26:28;;;;;;;;;11.25;10.25;;;;;14.56;59.48;101635.91;146610;582;46010;-66
2022/11/01 02:30:20;;;;;;;;;10.00;9.25;;;;;14.41;59.40;101617.72;146606;584;46016;-71
2022/11/01 02:33:58;;;;;;;;;18.75;15.75;;;;;14.45;60.04;101639.66;146608;671;46021;-71
2022/11/01 02:37:25;;;;;;;;;15.50;14.50;;;;;14.43;60.30;101651.75;146604;617;46016;-69
2022/11/01 02:41:09;;;;;;;;;12.75;12.25;;;;;14.35;59.93;101643.50;146607;570;46020;-70
2022/11/01 02:44:27;;;;;;;;;16.25;14.25;;;;;14.42;60.00;101657.75;146604;584;47012;-69
2022/11/01 02:47:41;;;;;;;;;11.75;11.75;;;;;14.45;59.94;101660.53;146611;603;46013;-70
2022/11/01 02:50:48;;;;;;;;;14.50;12.50;;;;;14.43;60.70;101656.97;146608;605;46012;-70
2022/11/01 02:53:52;;;;;;;;;17.25;11.75;;;;;14.41;61.89;101656.87;146611;602;46010;-72
2022/11/01 02:56:44;;;;;;;;;16.00;14.25;;;;;14.36;61.44;101658.38;146608;681;46012;-72
2022/11/01 03:00:03;;;;;;;;;12.25;11.25;;;;;14.41;60.39;101674.25;146608;597;46020;-72
2022/11/01 03:03:22;;;;;;;;;17.25;15.00;;;;;14.39;61.90;101682.00;146607;585;46036;-72
2022/11/01 03:06:55;;;;;;;;;16.00;14.75;;;;;14.38;61.31;101685.41;146608;604;46012;-70
2022/11/01 03:10:01;;;;;;;;;14.25;14.25;;;;;14.37;62.36;101682.75;146608;571;46012;-69
2022/11/01 03:13:45;;;;;;;;;14.75;14.75;;;;;11.94;60.66;101289.72;146608;564;46020;-70
2022/11/01 03:17:27;;;;;;;;;14.25;13.25;;;;;14.39;60.86;101691.53;146610;585;46012;-69
2022/11/01 03:21:14;;;;;;;;;15.00;12.50;;;;;14.44;60.78;101700.50;146610;661;46020;-71
2022/11/01 03:24:36;;;;;;;;;12.00;10.75;;;;;13.03;61.50;101450.75;146605;634;46917;-70
2022/11/01 03:28:11;;;;;;;;;;;;;;;;;;;;;
2022/11/01 03:31:45;;;;;;;;;;;;;;;;;;;;;
2022/11/01 03:35:05;;;;;;;;;13.00;13.00;;;;;14.43;61.64;101714.38;146611;691;46010;-69
2022/11/01 03:38:31;;;;;;;;;14.50;13.50;;;;;13.01;61.39;101476.69;146605;593;46016;-69
2022/11/01 03:41:26;;;;;;;;;14.75;14.00;;;;;14.40;62.36;101717.72;146609;601;46021;-70
2022/11/01 03:44:28;;;;;;;;;14.25;13.00;;;;;14.44;62.58;101721.37;146608;587;46016;-67
2022/11/01 03:47:45;;;;;;;;;16.25;14.75;;;;;12.06;61.74;101291.22;146607;631;46020;-67
2022/11/01 03:50:40;;;;;;;;;15.25;13.75;;;;;14.50;63.34;101721.69;146606;575;46917;-69
2022/11/01 03:53:41;;;;;;;;;14.25;14.25;;;;;14.49;62.80;101722.53;146607;564;46917;-69
2022/11/01 03:56:46;;;;;;;;;15.25;14.25;;;;;13.10;62.09;101477.19;146605;599;46017;-67
2022/11/01 03:59:46;;;;;;;;;15.25;14.00;;;;;14.47;62.89;101724.13;146610;595;46010;-67
2022/11/01 04:02:47;;;;;;;;;14.00;12.25;;;;;14.47;63.03;101716.31;146610;592;46013;-71
2022/11/01 04:05:53;;;;;;;;;17.75;15.75;;;;;14.45;63.43;101721.44;146609;565;46020;-68
2022/11/01 04:09:10;;;;;;;;;;;;;;;;;;;;;
2022/11/01 04:12:17;;;;;;;;;15.00;14.00;;;;;14.43;62.83;101714.38;146608;629;46029;-69
2022/11/01 04:21:47;;;;;;;;;18.75;16.75;;;;;14.46;62.97;101714.53;146606;616;46916;-70
2022/11/01 04:25:00;;;;;;;;;17.75;17.00;;;;;12.01;61.47;101285.75;146608;607;46020;-70
2022/11/01 04:27:59;;;;;;;;;14.50;13.50;;;;;14.52;63.03;101721.00;146609;608;46012;-71
2022/11/01 04:31:10;;;;;;;;;;;;;;;;;;;;;
2022/11/01 04:34:04;;;;;;;;;18.75;17.00;;;;;14.54;62.06;101726.28;146606;594;46016;-70
2022/11/01 04:37:10;;;;;;;;;12.00;12.00;;;;;14.57;62.50;101722.94;146609;571;46012;-70
2022/11/01 04:40:02;;;;;;;;;18.75;15.75;;;;;14.52;62.88;101728.81;146605;646;46017;-70
2022/11/01 04:42:57;;;;;;;;;19.75;15.75;;;;;13.24;62.24;101517.00;146611;569;46020;-70
2022/11/01 04:46:01;;;;;;;;;18.50;16.00;;;;;14.45;61.88;101738.81;146608;610;46919;-70
2022/11/01 04:49:01;;;;;;;;;21.00;19.75;;;;;14.39;61.49;101734.19;146605;615;46010;-71
2022/11/01 04:52:08;;;;;;;;;28.00;23.25;;;;;12.06;62.70;101343.19;146609;616;46012;-71
2022/11/01 04:55:03;;;;;;;;;23.50;22.75;;;;;14.18;63.02;101739.19;146609;602;46010;-67
2022/11/01 04:58:02;;;;;;;;;24.75;23.00;;;;;14.12;62.96;101741.47;146606;577;47014;-68
2022/11/01 05:01:13;;;;;;;;;20.50;20.50;;;;;14.05;63.24;101745.47;146608;608;46020;-68
2022/11/01 05:04:23;;;;;;;;;22.75;19.50;;;;;13.88;64.12;101742.75;146606;646;46012;-70
2022/11/01 05:07:29;;;;;;;;;21.50;20.00;;;;;13.83;63.77;101759.06;146605;587;46915;-69
2022/11/01 05:10:24;;;;;;;;;21.50;19.00;;;;;13.84;64.43;101754.75;146606;565;46919;-71
2022/11/01 05:13:22;;;;;;;;;19.25;16.00;;;;;13.84;64.43;101760.84;146608;698;46020;-71
2022/11/01 05:16:27;;;;;;;;;20.50;19.00;;;;;13.84;64.17;101765.16;146605;598;46016;-69
2022/11/01 05:19:39;;;;;;;;;21.00;18.50;;;;;13.85;64.60;101770.44;146608;699;46010;-72
2022/11/01 05:22:31;;;;;;;;;24.50;21.50;;;;;13.84;65.05;101763.44;146606;576;46014;-72
2022/11/01 05:25:27;;;;;;;;;17.25;16.00;;;;;13.84;65.04;101767.78;146607;694;46012;-72
2022/11/01 05:28:34;;;;;;;;;18.00;18.00;;;;;13.86;64.34;101771.34;146605;600;46038;-69
2022/11/01 05:31:32;;;;;;;;;19.50;17.75;;;;;13.92;64.31;101776.88;146608;606;46021;-71
2022/11/01 05:34:26;;;;;;;;;18.75;17.25;;;;;14.12;64.92;101777.09;146605;584;46016;-71
2022/11/01 05:37:20;;;;;;;;;17.75;14.25;;;;;14.78;66.87;101787.56;146608;614;46012;-69
2022/11/01 05:40:29;;;;;;;;;24.00;20.50;;;;;15.75;62.78;101792.34;146607;596;46016;-72
2022/11/01 05:43:30;;;;;;;;;19.75;17.50;;;;;16.73;61.03;101793.25;146609;584;46010;-73
2022/11/01 05:46:24;;;;;;;;;20.25;17.00;;;;;17.47;57.16;101798.12;146604;592;46017;-75
2022/11/01 05:49:23;;;;;;;;;25.75;21.00;;;;;17.99;57.04;101796.72;146607;591;46020;-74
2022/11/01 05:52:15;;;;;;;;;19.75;16.00;;;;;18.67;56.42;101797.44;146606;586;46016;-74
2022/11/01 05:55:11;;;;;;;;;20.75;18.00;;;;;19.51;54.14;101808.19;146609;575;46020;-71
2022/11/01 05:58:21;;;;;;;;;18.50;16.00;;;;;19.10;52.39;101602.69;146603;599;47919;-71
2022/11/01 06:01:21;;;;;;;;;18.50;18.00;;;;;21.08;51.24;101816.28;146606;585;46021;-71
2022/11/01 06:04:20;;;;;;;;;22.50;19.25;;;;;21.87;48.99;101817.34;146604;688;46016;-74
2022/11/01 06:07:21;;;;;;;;;22.25;19.50;;;;;22.31;47.23;101821.81;146607;594;46020;-74
2022/11/01 06:10:20;;;;;;;;;17.50;16.50;;;;;22.67;47.93;101824.28;146605;574;46919;-74
2022/11/01 06:13:15;;;;;;;;;18.75;15.75;;;;;23.16;46.48;101830.50;146609;610;46010;-74
2022/11/01 06:16:16;;;;;;;;;25.00;21.00;;;;;23.63;45.55;101840.06;146607;615;46012;-71
2022/11/01 06:19:12;;;;;;;;;17.50;16.00;;;;;23.85;44.09;101836.91;146606;592;46020;-72
2022/11/01 06:22:18;;;;;;;;;21.25;19.50;;;;;23.97;44.87;101842.38;146606;583;46016;-72
2022/11/01 06:25:13;;;;;;;;;23.50;23.50;;;;;24.19;43.92;101840.91;146609;579;46010;-74
2022/11/01 06:28:37;;;;;;;;;27.75;22.75;;;;;22.45;44.26;101502.31;146607;634;46016;-71
2022/11/01 06:31:41;;;;;;;;;15.50;15.00;;;;;24.54;42.84;101852.84;146608;619;46021;-68
2022/11/01 06:34:42;;;;;;;;;26.25;23.25;;;;;24.42;42.39;101851.84;146607;569;46016;-69
2022/11/01 06:37:37;;;;;;;;;35.00;29.75;;;;;24.08;40.88;101846.91;146606;579;46020;-71
2022/11/01 06:40:40;;;;;;;;;27.00;24.00;;;;;23.53;43.08;101854.94;146606;564;46016;-68
2022/11/01 06:43:37;;;;;;;;;31.50;27.50;;;;;23.00;42.42;101857.56;146606;755;46020;-69
2022/11/01 06:46:37;;;;;;;;;33.50;29.00;;;;;22.43;43.28;101858.16;146606;630;46016;-69
2022/11/01 06:49:37;;;;;;;;;28.75;27.00;;;;;21.87;45.01;101866.63;146608;573;46010;-68
2022/11/01 06:52:29;;;;;;;;;28.50;26.75;;;;;21.48;45.97;101859.53;146605;578;46017;-68
2022/11/01 06:55:35;;;;;;;;;34.75;28.50;;;;;21.22;48.37;101861.47;146607;595;46020;-70
2022/11/01 06:58:36;;;;;;;;;24.50;23.25;;;;;21.13;48.51;101866.53;146604;616;46014;-70
2022/11/01 07:01:35;;;;;;;;;19.00;18.50;;;;;21.11;49.47;101871.72;146609;591;46010;-69
2022/11/01 07:04:39;;;;;;;;;20.25;18.00;;;;;20.15;49.64;101688.16;146604;680;46919;-70
2022/11/01 07:07:39;;;;;;;;;21.50;21.00;;;;;21.19;49.33;101864.94;146609;638;46010;-69
2022/11/01 07:10:35;;;;;;;;;19.25;18.75;;;;;21.24;49.24;101870.31;146603;596;46016;-70
2022/11/01 07:13:35;;;;;;;;;24.25;24.00;;;;;21.31;48.88;101863.44;146607;597;46010;-71
2022/11/01 07:16:39;;;;;;;;;;;;;;;;;;;;;
2022/11/01 07:19:41;;;;;;;;;26.75;25.00;;;;;21.50;48.85;101857.81;146608;596;45020;-71
2022/11/01 07:22:37;;;;;;;;;29.75;23.75;;;;;21.60;48.54;101864.22;146607;574;46014;-71
2022/11/01 07:25:36;;;;;;;;;40.75;32.75;;;;;21.73;48.23;101868.03;146609;584;46010;-71
2022/11/01 07:28:34;;;;;;;;;35.25;30.00;;;;;21.84;48.44;101861.28;146604;575;46012;-69
2022/11/01 07:31:37;;;;;;;;;35.25;31.25;;;;;21.98;48.02;101869.50;146606;579;46021;-69
2022/11/01 07:34:46;;;;;;;;;;;;;;;;;;;;;
2022/11/01 07:37:59;;;;;;;;;49.75;40.50;;;;;20.93;47.40;101655.97;146609;564;46010;-71
2022/11/01 07:41:05;;;;;;;;;36.25;32.75;;;;;20.22;47.32;101529.50;146605;598;45584;-68
2022/11/01 07:44:01;;;;;;;;;47.75;37.00;;;;;22.26;45.75;101857.81;146608;633;46021;-70
2022/11/01 07:46:55;;;;;;;;;40.00;33.75;;;;;22.33;46.61;101859.72;146607;577;46014;-71
2022/11/01 07:49:57;;;;;;;;;44.50;36.50;;;;;22.48;44.69;101862.69;146609;591;45020;-70
2022/11/01 07:53:01;;;;;;;;;47.75;38.25;;;;;22.54;44.71;101856.63;146608;606;46012;-70
2022/11/01 07:56:03;;;;;;;;;41.25;34.50;;;;;22.55;45.14;101859.31;146609;632;46020;-70
2022/11/01 07:59:01;;;;;;;;;45.75;36.75;;;;;22.60;46.15;101855.00;146603;579;46016;-69
2022/11/01 08:01:54;;;;;;;;;44.75;34.50;;;;;22.71;46.02;101859.59;146606;605;47020;-71
2022/11/01 08:04:46;;;;;;;;;42.75;36.00;;;;;22.86;44.52;101864.28;146606;581;46012;-70
2022/11/01 08:07:42;;;;;;;;;41.50;33.50;;;;;22.97;45.46;101857.50;146606;564;47010;-66
2022/11/01 08:10:38;;;;;;;;;44.50;37.00;;;;;23.11;45.39;101855.09;146606;563;46035;-70
2022/11/01 08:13:31;;;;;;;;;43.75;34.50;;;;;23.29;44.58;101853.66;146607;579;46010;-70
2022/11/01 08:16:23;;;;;;;;;43.25;36.00;;;;;23.47;42.85;101855.72;146604;577;46014;-70
2022/11/01 08:19:16;;;;;;;;;42.75;36.25;;;;;23.53;42.77;101852.28;146610;631;45027;-71
2022/11/01 08:22:08;;;;;;;;;44.50;37.25;;;;;23.53;43.19;101849.63;146606;579;46016;-70
2022/11/01 08:25:14;;;;;;;;;41.00;34.25;;;;;23.56;45.60;101846.16;146609;596;46010;-70
2022/11/01 08:28:18;;;;;;;;;45.00;34.25;;;;;23.68;44.97;101846.34;146605;588;46016;-70
2022/11/01 08:31:28;;;;;;;;;39.75;33.00;;;;;23.86;43.54;101841.34;146607;598;46020;-70
2022/11/01 08:34:23;;;;;;;;;44.00;36.25;;;;;23.95;41.32;101854.69;146604;632;46016;-70
2022/11/01 08:37:24;;;;;;;;;38.25;32.75;;;;;23.98;42.95;101841.50;146611;583;46010;-71
2022/11/01 08:40:23;;;;;;;;;37.25;31.00;;;;;24.06;42.40;101846.91;146607;604;46014;-68
2022/11/01 08:43:19;;;;;;;;;33.75;29.00;;;;;24.13;41.42;101845.22;146609;569;46021;-70
2022/11/01 08:46:12;;;;;;;;;34.50;30.00;;;;;24.18;41.69;101852.38;146609;563;46012;-70
2022/11/01 08:49:29;;;;;;;;;34.25;30.50;;;;;24.26;43.08;101847.16;146606;661;46021;-70
2022/11/01 08:52:27;;;;;;;;;39.75;33.00;;;;;24.36;42.08;101842.88;146606;685;46017;-70
2022/11/01 08:55:22;;;;;;;;;26.00;23.50;;;;;24.52;42.75;101846.66;146608;599;46020;-70
2022/11/01 08:58:16;;;;;;;;;30.25;28.00;;;;;24.59;41.57;101845.84;146607;616;46013;-70
2022/11/01 09:01:25;;;;;;;;;23.00;20.50;;;;;24.63;42.55;101842.34;146605;569;47010;-68
2022/11/01 09:04:31;;;;;;;;;23.25;22.00;;;;;24.70;44.48;101849.47;146607;638;46012;-72
2022/11/01 09:07:25;;;;;;;;;25.25;22.50;;;;;24.68;43.66;101853.91;146609;575;46020;-70
2022/11/01 09:10:24;;;;;;;;;22.25;20.00;;;;;24.61;44.18;101846.72;146605;575;46016;-70
2022/11/01 09:13:22;;;;;;;;;28.50;24.75;;;;;24.54;43.96;101845.78;146609;699;46010;-71
2022/11/01 09:16:31;;;;;;;;;23.75;22.00;;;;;24.48;43.37;101844.81;146605;569;46916;-70
2022/11/01 09:19:30;;;;;;;;;27.50;23.50;;;;;23.46;43.96;101670.41;146607;584;46013;-68
2022/11/01 09:22:30;;;;;;;;;20.50;19.00;;;;;24.41;44.02;101843.81;146606;628;46012;-71
2022/11/01 09:25:27;;;;;;;;;17.50;17.25;;;;;24.37;43.24;101837.59;146607;651;46020;-70
2022/11/01 09:28:23;;;;;;;;;18.00;18.00;;;;;24.35;43.27;101839.31;146606;573;46036;-69
2022/11/01 09:31:24;;;;;;;;;19.00;17.50;;;;;24.35;43.74;101834.03;146609;563;46020;-70
2022/11/01 09:34:35;;;;;;;;;17.75;17.25;;;;;24.43;43.98;101834.16;146606;589;46012;-69
2022/11/01 09:37:29;;;;;;;;;19.00;18.25;;;;;24.50;43.18;101838.66;146610;619;46010;-70
2022/11/01 09:40:34;;;;;;;;;16.50;14.75;;;;;24.63;44.00;101829.09;146605;577;46016;-69
2022/11/01 09:43:34;;;;;;;;;20.50;19.75;;;;;24.66;42.76;101826.47;146608;584;46010;-69
2022/11/01 09:46:49;;;;;;;;;21.25;20.50;;;;;24.63;44.02;101827.31;146607;563;46034;-70
2022/11/01 09:49:47;;;;;;;;;26.00;23.75;;;;;24.54;43.60;101831.62;146607;616;46010;-69
2022/11/01 09:52:45;;;;;;;;;22.25;22.00;;;;;24.48;44.07;101826.25;146605;585;46031;-69
2022/11/01 09:56:25;;;;;;;;;23.00;21.75;;;;;22.47;44.43;101466.25;146606;570;46020;-69
2022/11/01 09:59:59;;;;;;;;;21.75;21.50;;;;;23.59;45.84;101650.28;146607;669;46012;-70
2022/11/01 10:03:47;;;;;;;;;24.25;22.00;;;;;23.57;45.33;101630.84;146608;582;46020;-69
2022/11/01 10:07:36;;;;;;;;;24.50;22.75;;;;;23.69;45.38;101638.97;146605;590;46016;-69
2022/11/01 10:10:51;;;;;;;;;21.00;18.00;;;;;24.82;44.99;101825.75;146607;563;46020;-70
2022/11/01 10:14:22;;;;;;;;;22.75;20.25;;;;;24.82;45.53;101828.38;146604;571;46017;-69
2022/11/01 10:17:55;;;;;;;;;20.50;20.00;;;;;23.58;45.93;101640.53;146611;577;46010;-69
2022/11/01 10:20:58;;;;;;;;;17.50;17.00;;;;;24.39;45.15;101811.09;146604;612;47017;-70
2022/11/01 10:24:04;;;;;;;;;17.50;16.00;;;;;24.26;45.53;101806.53;146602;579;46020;-70
2022/11/01 10:27:28;;;;;;;;;19.75;17.75;;;;;23.20;46.22;101633.87;146607;622;46013;-69
2022/11/01 10:30:45;;;;;;;;;19.25;18.00;;;;;23.14;46.35;101601.16;146608;563;46010;-70
2022/11/01 10:34:15;;;;;;;;;;;;;;;;;;;;;
2022/11/01 10:38:03;;;;;;;;;21.25;19.50;;;;;23.76;44.84;101624.03;146606;579;46020;-69
2022/11/01 10:41:09;;;;;;;;;21.25;17.50;;;;;24.87;44.84;101784.25;146606;602;46016;-69
2022/11/01 10:44:19;;;;;;;;;18.50;16.25;;;;;24.99;45.42;101785.25;146609;563;46010;-69
2022/11/01 10:47:24;;;;;;;;;23.00;20.25;;;;;25.15;44.52;101783.63;146606;569;46919;-69
2022/11/01 10:50:47;;;;;;;;;21.25;19.50;;;;;23.31;45.03;101451.44;146609;657;46010;-69
2022/11/01 10:53:48;;;;;;;;;19.25;18.25;;;;;25.26;42.77;101774.84;146604;601;46016;-68
2022/11/01 10:56:56;;;;;;;;;19.00;16.50;;;;;25.33;43.58;101771.38;146606;623;46021;-69
2022/11/01 10:59:55;;;;;;;;;21.50;20.75;;;;;25.32;41.89;101774.91;146604;580;46016;-69
2022/11/01 11:03:33;;;;;;;;;20.25;19.25;;;;;24.22;42.45;101583.00;146609;577;46020;-69
2022/11/01 11:06:41;;;;;;;;;19.00;18.00;;;;;23.32;44.02;101442.63;146603;611;46016;-69
2022/11/01 11:09:40;;;;;;;;;19.75;19.25;;;;;25.19;41.75;101775.69;146609;655;46020;-69
2022/11/01 11:12:52;;;;;;;;;21.75;20.25;;;;;24.12;43.02;101581.16;146607;650;46016;-68
2022/11/01 11:15:54;;;;;;;;;19.50;18.75;;;;;25.24;42.10;101765.13;146609;626;46010;-69
2022/11/01 11:19:29;;;;;;;;;23.75;19.50;;;;;25.32;44.04;101763.38;146603;642;46016;-68
2022/11/01 11:22:31;;;;;;;;;22.50;22.00;;;;;25.34;40.59;101759.88;146609;576;46020;-70
2022/11/01 11:25:26;;;;;;;;;18.75;17.50;;;;;25.31;40.67;101754.53;146603;654;47026;-69
2022/11/01 11:28:45;;;;;;;;;19.00;18.50;;;;;24.18;42.86;101573.25;146607;698;46020;-69
2022/11/01 11:31:39;;;;;;;;;24.00;22.50;;;;;25.19;41.23;101759.75;146606;580;46012;-69
2022/11/01 11:34:43;;;;;;;;;26.75;24.25;;;;;25.15;42.38;101754.44;146610;572;46010;-69
2022/11/01 11:37:52;;;;;;;;;16.00;15.75;;;;;25.14;42.52;101756.22;146605;575;47016;-68
2022/11/01 11:40:51;;;;;;;;;23.75;22.25;;;;;25.09;41.56;101755.25;146608;616;46010;-70
2022/11/01 11:43:43;;;;;;;;;18.50;17.75;;;;;25.02;43.38;101743.69;146605;571;46014;-69
2022/11/01 11:46:48;;;;;;;;;18.50;16.50;;;;;25.05;41.69;101746.38;146607;593;46010;-70
2022/11/01 11:49:42;;;;;;;;;18.00;16.00;;;;;25.05;41.87;101742.84;146606;616;46016;-69
2022/11/01 11:52:38;;;;;;;;;19.25;17.00;;;;;25.12;41.69;101742.00;146606;578;46010;-68
2022/11/01 11:56:08;;;;;;;;;18.75;16.25;;;;;25.23;42.27;101745.63;146604;644;46016;-70
2022/11/01 11:59:14;;;;;;;;;17.50;16.50;;;;;25.20;41.38;101737.66;146608;578;46010;-69
2022/11/01 12:02:32;;;;;;;;;20.00;17.25;;;;;24.24;42.64;101577.69;146605;608;46016;-69
2022/11/01 12:05:30;;;;;;;;;19.50;17.75;;;;;25.14;42.17;101747.34;146608;570;46010;-68
2022/11/01 12:08:50;;;;;;;;;18.50;15.50;;;;;23.98;43.81;101547.44;146607;569;46016;-69
2022/11/01 12:11:49;;;;;;;;;19.50;18.25;;;;;24.21;42.45;101573.28;146606;648;46021;-68
2022/11/01 12:14:48;;;;;;;;;16.25;14.50;;;;;25.21;42.50;101712.91;146605;614;46016;-68
2022/11/01 12:17:51;;;;;;;;;15.25;15.00;;;;;25.30;40.17;101728.00;146608;650;46010;-68
2022/11/01 12:21:05;;;;;;;;;17.00;14.75;;;;;25.18;40.66;101719.97;146608;580;46012;-68
2022/11/01 12:24:27;;;;;;;;;20.00;18.25;;;;;24.99;40.69;101727.75;146607;564;46010;-69
2022/11/01 12:27:26;;;;;;;;;16.00;16.00;;;;;24.80;41.14;101721.41;146607;643;46013;-69
2022/11/01 12:30:41;;;;;;;;;20.50;19.25;;;;;24.68;43.11;101716.00;146607;596;46020;-68
2022/11/01 12:33:49;;;;;;;;;19.50;18.00;;;;;24.70;42.18;101719.53;146604;592;46016;-68
2022/11/01 12:37:23;;;;;;;;;18.00;16.00;;;;;24.76;42.83;101716.94;146608;579;46012;-68
2022/11/01 12:41:03;;;;;;;;;21.50;20.50;;;;;24.87;41.79;101717.91;146605;575;46919;-68
2022/11/01 12:44:35;;;;;;;;;20.00;19.00;;;;;24.03;43.12;101568.69;146609;609;46010;-68
2022/11/01 12:48:00;;;;;;;;;20.50;19.50;;;;;24.94;43.51;101708.25;146605;621;46014;-71
2022/11/01 12:51:13;;;;;;;;;21.75;19.75;;;;;25.08;42.21;101703.94;146605;572;46020;-67
2022/11/01 12:54:43;;;;;;;;;22.25;20.00;;;;;25.07;42.65;101698.59;146608;672;46012;-72
2022/11/01 12:57:54;;;;;;;;;19.50;17.50;;;;;23.45;42.95;101383.66;146609;583;46010;-71
2022/11/01 13:01:36;;;;;;;;;19.50;18.75;;;;;23.67;42.96;101370.59;146607;614;46012;-70
2022/11/01 13:04:59;;;;;;;;;18.75;17.75;;;;;25.82;41.69;101700.84;146604;612;46021;-71
2022/11/01 13:08:32;;;;;;;;;18.75;16.00;;;;;24.25;41.56;101375.44;146606;636;46016;-71
2022/11/01 13:11:55;;;;;;;;;19.00;19.00;;;;;26.25;40.26;101702.75;146607;627;46021;-72
2022/11/01 13:15:17;;;;;;;;;19.00;16.50;;;;;24.63;41.22;101396.84;146605;564;46018;-71
2022/11/01 13:18:54;;;;;;;;;16.00;16.00;;;;;25.33;41.20;101503.25;146607;559;46012;-71
2022/11/01 13:22:19;;;;;;;;;17.50;17.50;;;;;24.73;41.47;101380.06;146606;624;46012;-70
2022/11/01 13:25:51;;;;;;;;;17.25;16.25;;;;;25.56;41.57;101515.69;146608;660;46021;-71
2022/11/01 13:29:16;;;;;;;;;14.25;14.00;;;;;26.61;40.67;101693.09;146603;565;46012;-71
2022/11/01 13:33:00;;;;;;;;;16.25;16.00;;;;;24.81;41.05;101372.16;146608;574;46020;-71
2022/11/01 13:36:28;;;;;;;;;19.00;16.50;;;;;26.69;40.08;101685.09;146606;624;46012;-71
2022/11/01 13:40:04;;;;;;;;;16.00;15.50;;;;;26.79;41.34;101685.97;146608;576;46021;-70
2022/11/01 13:43:28;;;;;;;;;17.75;15.50;;;;;26.82;40.56;101680.66;146603;592;46016;-71
2022/11/01 13:47:23;;;;;;;;;19.50;15.00;;;;;26.58;41.10;101682.44;146607;582;47012;-71
2022/11/01 13:50:50;;;;;;;;;17.50;17.25;;;;;25.08;41.96;101489.00;146606;579;46012;-71
2022/11/01 13:54:02;;;;;;;;;17.75;16.00;;;;;26.03;41.63;101684.97;146609;639;46021;-71
2022/11/01 13:57:22;;;;;;;;;14.00;13.75;;;;;25.83;42.02;101687.59;146598;603;47919;-71
2022/11/01 14:01:06;;;;;;;;;16.00;14.25;;;;;25.23;43.85;101636.81;146606;571;46020;-71
2022/11/01 14:04:42;;;;;;;;;16.00;15.50;;;;;25.22;44.17;101682.81;146606;572;46028;-70
2022/11/01 14:08:22;;;;;;;;;17.50;15.75;;;;;24.11;44.50;101529.91;146608;639;46010;-71
2022/11/01 14:11:35;;;;;;;;;16.25;15.25;;;;;24.84;44.54;101686.06;146606;576;46019;-71
2022/11/01 14:14:53;;;;;;;;;16.50;16.50;;;;;23.44;45.39;101482.47;146606;613;46012;-71
2022/11/01 14:18:17;;;;;;;;;16.75;16.00;;;;;23.35;45.38;101484.13;146607;627;46016;-70
2022/11/01 14:21:30;;;;;;;;;18.50;17.00;;;;;24.39;45.66;101684.75;146607;572;46020;-71
2022/11/01 14:24:35;;;;;;;;;17.50;16.00;;;;;24.29;46.11;101690.81;146604;641;46016;-71
2022/11/01 14:27:50;;;;;;;;;16.75;14.75;;;;;24.18;46.58;101684.53;146609;570;46020;-71
2022/11/01 14:30:48;;;;;;;;;18.50;17.50;;;;;24.12;46.91;101681.84;146606;579;46013;-70
2022/11/01 14:33:52;;;;;;;;;15.00;15.00;;;;;24.03;47.00;101685.25;146610;613;46012;-70
2022/11/01 14:36:49;;;;;;;;;19.00;18.50;;;;;23.91;48.05;101693.94;146605;574;46919;-73
2022/11/01 14:40:20;;;;;;;;;21.00;18.25;;;;;23.78;47.80;101686.75;146608;634;46020;-75